Time;durP1;ratioP1;P1;durP2;ratioP2;P2;SDS_P1;SDS_P2;PMS_P1;PMS_P2;Temp;Humidity;BMP_temperature;BMP_pressure;BME280_temperature;BME280_humidity;BME280_pressure;Samples;Min_cycle;Max_cycle;Signal;HPM_P1;HPM_P2
2022/09/26 00:01:18;;;;;;;5.90;3.97;;;13.20;99.90;;;;;;4975822;28;93378;-73
2022/09/26 00:04:06;;;;;;;4.43;3.10;;;13.30;99.90;;;;;;4975614;28;92399;-73
2022/09/26 00:06:33;;;;;;;4.10;3.05;;;13.30;99.90;;;;;;4976137;28;91741;-73
2022/09/26 00:09:00;;;;;;;5.38;3.97;;;13.20;99.90;;;;;;4974018;28;93320;-73
2022/09/26 00:11:30;;;;;;;6.72;3.60;;;13.20;99.90;;;;;;4976014;28;92971;-73
2022/09/26 00:14:02;;;;;;;4.53;4.05;;;13.20;99.90;;;;;;4972942;28;94831;-73
2022/09/26 00:16:28;;;;;;;4.53;3.38;;;13.20;99.90;;;;;;4976008;28;92505;-73
2022/09/26 00:18:57;;;;;;;4.80;3.40;;;13.20;99.90;;;;;;4973358;28;95831;-73
2022/09/26 00:21:26;;;;;;;5.47;3.70;;;13.20;99.90;;;;;;4975686;28;93282;-73
2022/09/26 00:23:54;;;;;;;3.90;3.08;;;13.20;99.90;;;;;;4974242;28;92527;-72
2022/09/26 00:26:23;;;;;;;3.85;3.33;;;13.20;99.90;;;;;;4974450;28;92506;-73
2022/09/26 00:28:51;;;;;;;4.43;3.15;;;13.20;99.90;;;;;;4975394;28;93052;-73
2022/09/26 00:31:27;;;;;;;3.92;3.58;;;13.10;99.90;;;;;;4975822;28;93061;-73
2022/09/26 00:33:54;;;;;;;3.63;3.33;;;13.10;99.90;;;;;;4974083;28;92568;-73
2022/09/26 00:36:22;;;;;;;6.40;3.10;;;13.00;99.90;;;;;;4958157;28;93270;-72
2022/09/26 00:39:00;;;;;;;4.25;3.63;;;13.00;99.90;;;;;;4972707;28;98263;-73
2022/09/26 00:41:27;;;;;;;6.07;3.75;;;13.00;99.90;;;;;;4973765;28;97862;-72
2022/09/26 00:43:56;;;;;;;4.20;3.55;;;13.00;99.90;;;;;;4974960;28;94995;-73
2022/09/26 00:46:23;;;;;;;4.63;3.20;;;12.90;99.90;;;;;;4974250;28;92420;-72
2022/09/26 00:49:01;;;;;;;3.55;3.10;;;12.90;99.90;;;;;;4957331;28;95833;-73
2022/09/26 00:51:28;;;;;;;4.38;3.22;;;12.90;99.90;;;;;;4973898;28;95468;-73
2022/09/26 00:53:56;;;;;;;4.40;3.20;;;12.80;99.90;;;;;;4973706;28;92460;-73
2022/09/26 00:56:30;;;;;;;3.45;3.15;;;12.80;99.90;;;;;;4975862;28;91705;-73
2022/09/26 00:59:21;;;;;;;4.90;3.42;;;12.80;99.90;;;;;;4957320;28;94128;-73
2022/09/26 01:01:50;;;;;;;4.28;2.97;;;12.80;99.90;;;;;;4973291;28;95761;-72
2022/09/26 01:04:18;;;;;;;4.93;3.20;;;12.80;99.90;;;;;;4972620;28;94798;-73
2022/09/26 01:06:45;;;;;;;4.70;3.15;;;12.70;99.90;;;;;;4973804;28;92534;-72
2022/09/26 01:09:13;;;;;;;3.55;3.00;;;12.70;99.90;;;;;;4957570;28;95974;-73
2022/09/26 01:11:42;;;;;;;4.50;3.70;;;12.70;99.90;;;;;;4973623;28;95756;-73
2022/09/26 01:14:11;;;;;;;3.35;3.05;;;12.70;99.90;;;;;;4975199;28;92923;-73
2022/09/26 01:16:40;;;;;;;3.88;2.97;;;12.70;99.90;;;;;;4973261;28;101466;-73
2022/09/26 01:19:27;;;;;;;2.95;2.72;;;12.70;99.90;;;;;;4972975;28;96015;-73
2022/09/26 01:22:13;;;;;;;6.55;3.50;;;12.70;99.90;;;;;;4957098;28;95628;-72
2022/09/26 01:24:43;;;;;;;4.20;2.65;;;12.70;99.90;;;;;;4975356;28;92441;-73
2022/09/26 01:27:44;;;;;;;8.52;3.00;;;12.60;99.90;;;;;;4973282;28;92572;-73
2022/09/26 01:30:18;;;;;;;5.15;2.75;;;12.70;99.90;;;;;;4972718;28;95550;-72
2022/09/26 01:32:52;;;;;;;6.15;2.90;;;12.60;99.90;;;;;;4976704;28;97856;-73
2022/09/26 01:35:31;;;;;;;4.45;2.42;;;12.60;99.90;;;;;;4976699;28;92606;-72
2022/09/26 01:38:16;;;;;;;4.15;2.40;;;12.60;99.90;;;;;;4976317;28;92522;-73
2022/09/26 01:41:25;;;;;;;3.00;2.70;;;12.60;99.90;;;;;;4976724;28;95486;-72
2022/09/26 01:44:17;;;;;;;3.45;2.70;;;12.60;99.90;;;;;;4951896;28;95239;-73
2022/09/26 01:47:04;;;;;;;4.68;2.47;;;12.50;99.90;;;;;;4976516;28;92544;-73
2022/09/26 01:49:47;;;;;;;5.88;2.53;;;12.50;99.90;;;;;;4977473;28;91843;-72
2022/09/26 01:52:22;;;;;;;5.45;2.20;;;12.50;99.90;;;;;;4975984;28;95745;-72
2022/09/26 01:55:08;;;;;;;5.10;3.20;;;12.50;99.90;;;;;;4976486;28;95464;-72
2022/09/26 01:57:50;;;;;;;5.15;2.30;;;12.50;99.90;;;;;;4975365;28;94925;-73
2022/09/26 02:00:18;;;;;;;3.35;2.40;;;12.50;99.90;;;;;;4976356;28;92481;-72
2022/09/26 02:02:48;;;;;;;4.78;2.25;;;12.60;99.90;;;;;;4976164;28;95529;-73
2022/09/26 02:05:24;;;;;;;5.03;3.03;;;12.60;99.90;;;;;;4977156;28;92516;-73
2022/09/26 02:07:57;;;;;;;4.07;2.20;;;12.60;99.90;;;;;;4976429;28;92484;-73
2022/09/26 02:10:33;;;;;;;3.77;3.00;;;12.70;99.90;;;;;;4976214;28;92564;-72
2022/09/26 02:13:24;;;;;;;3.75;2.35;;;12.70;99.90;;;;;;4977197;28;93253;-73
2022/09/26 02:15:57;;;;;;;6.15;3.38;;;12.70;99.90;;;;;;4976845;28;92777;-73
2022/09/26 02:18:39;;;;;;;4.03;3.08;;;12.70;99.90;;;;;;4975551;28;92560;-73
2022/09/26 02:21:17;;;;;;;3.25;2.95;;;12.80;99.90;;;;;;4959839;28;92587;-72
2022/09/26 02:23:46;;;;;;;5.50;2.83;;;12.80;99.90;;;;;;4974787;28;98129;-72
2022/09/26 02:26:14;;;;;;;7.57;3.13;;;12.80;99.90;;;;;;4975605;28;97911;-72
2022/09/26 02:28:41;;;;;;;5.18;3.30;;;12.80;99.90;;;;;;4977285;28;92925;-73
2022/09/26 02:31:15;;;;;;;5.90;3.00;;;12.80;99.90;;;;;;4975755;28;92456;-73
2022/09/26 02:33:44;;;;;;;4.20;3.25;;;12.90;99.90;;;;;;4975934;28;95786;-73
2022/09/26 02:36:11;;;;;;;3.83;3.53;;;12.90;99.90;;;;;;4975211;28;95692;-73
2022/09/26 02:38:37;;;;;;;5.30;3.55;;;12.90;99.90;;;;;;4975874;28;92510;-72
2022/09/26 02:41:58;;;;;;;6.05;2.80;;;13.00;99.90;;;;;;4967512;28;91834;-72
2022/09/26 02:44:46;;;;;;;4.20;3.00;;;13.00;99.90;;;;;;4975257;28;95972;-73
2022/09/26 02:47:24;;;;;;;5.90;3.80;;;12.90;99.90;;;;;;4975142;28;95924;-73
2022/09/26 02:50:00;;;;;;;3.35;2.95;;;13.00;99.90;;;;;;4958392;28;94852;-73
2022/09/26 02:52:51;;;;;;;4.45;3.33;;;13.00;99.90;;;;;;4975740;28;92568;-72
2022/09/26 02:55:43;;;;;;;6.93;3.00;;;13.10;99.90;;;;;;4960326;28;95607;-73
2022/09/26 02:58:16;;;;;;;7.68;3.72;;;13.10;99.90;;;;;;4959185;28;95608;-73
2022/09/26 03:01:10;;;;;;;8.88;3.40;;;13.10;99.90;;;;;;4975330;28;92725;-72
2022/09/26 03:03:51;;;;;;;4.15;3.35;;;13.10;99.90;;;;;;4959476;28;92947;-73
2022/09/26 03:06:25;;;;;;;4.55;2.95;;;13.00;99.90;;;;;;4958832;28;95611;-72
2022/09/26 03:08:55;;;;;;;5.75;3.22;;;13.00;99.90;;;;;;4975699;28;95272;-73
2022/09/26 03:11:24;;;;;;;5.95;3.90;;;13.10;99.90;;;;;;4975191;28;92552;-73
2022/09/26 03:13:54;;;;;;;4.45;3.55;;;13.10;99.90;;;;;;4975470;28;92492;-73
2022/09/26 03:16:24;;;;;;;5.78;3.42;;;13.10;99.90;;;;;;4973732;28;97665;-72
2022/09/26 03:18:56;;;;;;;6.18;3.70;;;13.10;99.90;;;;;;4974913;28;97780;-73
2022/09/26 03:21:24;;;;;;;9.77;4.82;;;13.20;99.90;;;;;;4959034;28;92510;-73
2022/09/26 03:23:51;;;;;;;5.78;3.45;;;13.10;99.90;;;;;;4976437;28;92411;-73
2022/09/26 03:26:23;;;;;;;7.55;3.28;;;13.10;99.90;;;;;;4958546;28;95705;-73
2022/09/26 03:28:57;;;;;;;5.30;4.88;;;13.20;99.90;;;;;;4959766;28;95282;-73
2022/09/26 03:31:27;;;;;;;5.97;4.22;;;13.10;99.90;;;;;;4959011;28;92579;-73
2022/09/26 03:33:59;;;;;;;4.25;3.88;;;13.10;99.90;;;;;;4975550;28;91739;-73
2022/09/26 03:36:27;;;;;;;7.70;4.53;;;13.10;99.90;;;;;;4958545;28;95594;-73
2022/09/26 03:38:54;;;;;;;8.85;5.30;;;13.10;99.90;;;;;;4974939;28;95522;-72
2022/09/26 03:41:33;;;;;;;7.07;4.28;;;13.00;99.90;;;;;;4973860;28;94939;-72
2022/09/26 03:44:08;;;;;;;5.53;4.72;;;13.00;99.90;;;;;;4974737;28;92454;-73
2022/09/26 03:46:58;;;;;;;9.55;4.90;;;13.10;99.90;;;;;;4965250;28;92653;-73
2022/09/26 03:49:26;;;;;;;7.03;5.07;;;13.00;99.90;;;;;;4958523;28;95314;-72
2022/09/26 03:51:53;;;;;;;8.00;5.32;;;13.00;99.90;;;;;;4974800;28;94196;-73
2022/09/26 03:54:19;;;;;;;6.68;5.05;;;13.00;99.90;;;;;;4973857;28;92616;-72
2022/09/26 03:56:47;;;;;;;7.88;4.72;;;13.00;99.90;;;;;;4974519;28;95526;-72
2022/09/26 03:59:15;;;;;;;9.23;5.15;;;13.00;99.90;;;;;;4974453;28;95498;-73
2022/09/26 04:01:43;;;;;;;7.25;5.13;;;13.00;99.90;;;;;;4974709;28;92542;-73
2022/09/26 04:04:14;;;;;;;6.22;5.45;;;13.00;99.90;;;;;;4974417;28;92699;-73
2022/09/26 04:06:43;;;;;;;6.03;5.25;;;13.00;99.90;;;;;;4973224;28;98497;-73
2022/09/26 04:09:11;;;;;;;6.28;5.65;;;13.00;99.90;;;;;;4974038;28;97999;-72
2022/09/26 04:11:45;;;;;;;11.43;5.45;;;12.90;99.90;;;;;;4974709;28;92494;-73
2022/09/26 04:14:12;;;;;;;8.95;5.45;;;12.90;99.90;;;;;;4974245;28;92591;-72
2022/09/26 04:16:40;;;;;;;7.57;5.57;;;12.90;99.90;;;;;;4974535;28;95586;-73
2022/09/26 04:19:14;;;;;;;7.43;5.57;;;12.90;99.90;;;;;;4973766;28;95633;-73
2022/09/26 04:21:42;;;;;;;10.07;6.35;;;12.90;99.90;;;;;;4976087;28;92978;-73
2022/09/26 04:24:13;;;;;;;7.03;5.88;;;12.90;99.90;;;;;;4974816;28;91820;-73
2022/09/26 04:26:42;;;;;;;8.57;5.68;;;12.90;99.90;;;;;;4974246;28;95873;-73
2022/09/26 04:29:10;;;;;;;8.63;6.32;;;12.90;99.90;;;;;;4974094;28;95770;-72
2022/09/26 04:31:59;;;;;;;6.47;5.65;;;12.90;99.90;;;;;;4973321;28;95188;-73
2022/09/26 04:34:39;;;;;;;6.90;6.15;;;12.90;99.90;;;;;;4974332;28;92613;-73
2022/09/26 04:37:08;;;;;;;10.30;6.53;;;12.90;99.90;;;;;;4973924;28;95203;-73
2022/09/26 04:39:35;;;;;;;10.07;6.95;;;12.90;99.90;;;;;;4973813;28;94088;-72
2022/09/26 04:42:03;;;;;;;7.82;6.32;;;12.90;99.90;;;;;;4974267;28;93248;-72
2022/09/26 04:44:31;;;;;;;8.50;6.22;;;12.90;99.90;;;;;;4957809;28;92544;-72
2022/09/26 04:46:58;;;;;;;7.45;5.93;;;12.80;99.90;;;;;;4957747;28;95744;-73
2022/09/26 04:49:41;;;;;;;9.60;6.75;;;12.80;99.90;;;;;;4960108;28;94162;-73
2022/09/26 04:52:08;;;;;;;8.68;6.93;;;12.80;99.90;;;;;;4957904;28;93181;-72
2022/09/26 04:54:37;;;;;;;9.13;6.43;;;12.80;99.90;;;;;;4957669;28;92504;-73
2022/09/26 04:57:04;;;;;;;9.57;7.65;;;12.80;99.90;;;;;;4974096;28;95595;-73
2022/09/26 04:59:31;;;;;;;9.48;6.97;;;12.90;99.90;;;;;;4973477;28;98082;-73
2022/09/26 05:02:02;;;;;;;9.40;7.68;;;12.90;99.90;;;;;;4973611;28;92989;-73
2022/09/26 05:04:35;;;;;;;8.85;7.10;;;12.90;99.90;;;;;;4973997;28;93137;-73
2022/09/26 05:07:02;;;;;;;8.38;7.55;;;12.90;99.90;;;;;;4976671;28;94207;-73
2022/09/26 05:09:31;;;;;;;8.13;7.32;;;12.80;99.90;;;;;;4977129;28;95622;-73
2022/09/26 05:12:05;;;;;;;13.82;7.78;;;12.90;99.90;;;;;;4977301;28;92474;-73
2022/09/26 05:14:34;;;;;;;9.98;7.82;;;12.80;99.90;;;;;;4961121;28;92191;-73
2022/09/26 05:17:03;;;;;;;11.98;8.25;;;12.80;99.90;;;;;;4976871;28;95251;-73
2022/09/26 05:19:31;;;;;;;9.55;8.48;;;12.80;99.90;;;;;;4960288;28;95518;-73
2022/09/26 05:22:17;;;;;;;11.70;8.10;;;12.80;99.90;;;;;;4976712;28;94889;-73
2022/09/26 05:27:30;;;;;;;10.95;8.02;;;12.80;99.90;;;;;;4976688;28;95870;-73
2022/09/26 05:29:57;;;;;;;10.85;8.35;;;12.80;99.90;;;;;;4960364;28;95572;-72
2022/09/26 05:32:27;;;;;;;10.40;7.97;;;12.90;99.90;;;;;;4976661;28;92579;-72
2022/09/26 05:34:55;;;;;;;9.50;8.50;;;12.90;99.90;;;;;;4976724;28;92606;-73
2022/09/26 05:37:23;;;;;;;9.40;8.02;;;12.90;99.90;;;;;;4976264;28;95406;-73
2022/09/26 05:42:40;;;;;;;7.70;6.95;;;12.90;99.90;;;;;;4976423;28;92536;-72
2022/09/26 05:45:08;;;;;;;9.63;8.00;;;12.90;99.90;;;;;;4976620;28;92620;-72
2022/09/26 05:47:35;;;;;;;11.70;7.90;;;12.90;99.90;;;;;;4958709;28;97876;-73
2022/09/26 05:50:11;;;;;;;10.30;8.88;;;12.90;99.90;;;;;;4960205;28;97652;-72
2022/09/26 05:52:39;;;;;;;9.63;7.68;;;12.90;99.90;;;;;;4976372;28;92373;-73
2022/09/26 05:55:10;;;;;;;10.55;8.15;;;12.90;99.90;;;;;;4960634;28;92485;-73
2022/09/26 05:57:57;;;;;;;10.57;7.78;;;13.00;99.90;;;;;;4977619;28;92823;-73
2022/09/26 06:00:31;;;;;;;8.68;7.60;;;12.90;99.90;;;;;;4960551;28;95217;-73
2022/09/26 06:03:02;;;;;;;10.23;7.57;;;13.00;99.90;;;;;;4976445;28;92888;-73
2022/09/26 06:05:37;;;;;;;9.77;7.95;;;13.00;99.90;;;;;;4976274;28;91685;-73
2022/09/26 06:08:14;;;;;;;8.98;7.15;;;13.00;99.90;;;;;;4976178;28;94569;-72
2022/09/26 06:10:44;;;;;;;11.55;8.30;;;13.00;99.90;;;;;;4975711;28;94814;-72
2022/09/26 06:13:14;;;;;;;9.45;7.72;;;13.00;99.90;;;;;;4958658;28;94884;-73
2022/09/26 06:15:47;;;;;;;10.82;8.35;;;13.00;99.90;;;;;;4975670;28;92479;-72
2022/09/26 06:18:14;;;;;;;8.57;7.25;;;13.00;99.90;;;;;;4976869;28;92472;-73
2022/09/26 06:20:41;;;;;;;11.07;8.00;;;13.00;99.90;;;;;;4959681;28;95428;-73
2022/09/26 06:23:08;;;;;;;9.52;7.53;;;13.00;99.90;;;;;;4960009;28;92524;-73
2022/09/26 06:25:38;;;;;;;8.50;7.07;;;13.00;99.90;;;;;;4975733;28;92499;-73
2022/09/26 06:28:05;;;;;;;8.80;6.57;;;13.00;99.90;;;;;;4975952;28;95611;-73
2022/09/26 06:30:35;;;;;;;9.88;7.65;;;13.00;99.90;;;;;;4960136;28;95252;-72
2022/09/26 06:33:10;;;;;;;7.63;5.95;;;13.00;99.90;;;;;;4976124;28;92494;-73
2022/09/26 06:36:08;;;;;;;7.72;6.57;;;13.00;99.90;;;;;;4967709;28;93076;-72
2022/09/26 06:38:37;;;;;;;10.47;6.97;;;13.00;99.90;;;;;;4974487;28;97871;-73
2022/09/26 06:41:09;;;;;;;9.85;7.35;;;12.90;99.90;;;;;;4975633;28;97912;-73
2022/09/26 06:43:38;;;;;;;9.38;6.55;;;13.00;99.90;;;;;;4975701;28;92643;-73
2022/09/26 06:46:08;;;;;;;8.85;6.03;;;13.00;99.90;;;;;;4976649;28;92504;-73
2022/09/26 06:48:55;;;;;;;12.02;6.18;;;13.00;99.90;;;;;;4976398;28;93989;-73
2022/09/26 06:51:40;;;;;;;9.73;7.03;;;13.10;99.90;;;;;;4976773;28;92461;-73
2022/09/26 06:54:09;;;;;;;6.82;6.15;;;13.10;99.90;;;;;;4959505;28;92545;-73
2022/09/26 06:56:35;;;;;;;6.63;5.57;;;13.10;99.90;;;;;;4975632;28;91721;-72
2022/09/26 06:59:02;;;;;;;6.80;6.13;;;13.20;99.90;;;;;;4975285;28;95923;-72
2022/09/26 07:01:32;;;;;;;6.13;5.40;;;13.20;99.90;;;;;;4975205;28;94493;-73
2022/09/26 07:04:08;;;;;;;5.22;4.72;;;13.30;99.90;;;;;;4959315;28;94877;-73
2022/09/26 07:06:54;;;;;;;6.15;5.45;;;13.30;99.90;;;;;;4974881;28;92565;-73
2022/09/26 07:09:24;;;;;;;8.60;5.28;;;13.30;99.90;;;;;;4975083;28;95603;-73
2022/09/26 07:11:53;;;;;;;6.28;4.78;;;13.30;99.90;;;;;;4975058;28;95706;-72
2022/09/26 07:14:41;;;;;;;6.97;4.63;;;13.40;99.90;;;;;;4975055;28;92438;-73
2022/09/26 07:17:34;;;;;;;6.75;4.90;;;13.40;99.90;;;;;;4973819;28;92450;-73
2022/09/26 07:20:17;;;;;;;6.03;4.60;;;13.40;99.90;;;;;;4975078;28;95584;-73
2022/09/26 07:23:10;;;;;;;7.22;4.60;;;13.50;99.90;;;;;;4948011;28;91924;-73
2022/09/26 07:25:39;;;;;;;6.57;5.40;;;13.50;99.90;;;;;;4959085;28;92487;-73
2022/09/26 07:28:08;;;;;;;6.57;4.28;;;13.50;99.90;;;;;;4958156;28;92415;-73
2022/09/26 07:30:42;;;;;;;5.30;4.80;;;13.50;99.90;;;;;;4973428;28;98128;-73
2022/09/26 07:33:29;;;;;;;5.97;4.20;;;13.50;99.90;;;;;;4975661;28;96217;-72
2022/09/26 07:36:00;;;;;;;5.55;4.35;;;13.40;99.90;;;;;;4975141;28;92572;-73
2022/09/26 07:38:31;;;;;;;4.72;3.85;;;13.40;99.90;;;;;;4974790;28;93577;-73
2022/09/26 07:40:59;;;;;;;6.82;4.43;;;13.40;99.90;;;;;;4958337;28;95858;-73
2022/09/26 07:43:26;;;;;;;5.55;4.75;;;13.40;99.90;;;;;;4974651;28;95547;-72
2022/09/26 07:51:55;;;;;;;4.90;4.07;;;13.40;99.90;;;;;;4974262;28;93000;-73
2022/09/26 07:54:30;;;;;;;8.25;4.43;;;13.50;99.90;;;;;;4959474;28;95066;-72
2022/09/26 07:57:15;;;;;;;6.40;5.13;;;13.50;99.90;;;;;;4974857;28;94828;-72
2022/09/26 08:00:17;;;;;;;6.95;4.05;;;13.40;99.90;;;;;;4976280;28;92639;-72
2022/09/26 08:03:00;;;;;;;4.65;3.90;;;13.40;99.90;;;;;;4974247;28;95226;-73
2022/09/26 08:05:28;;;;;;;4.82;4.35;;;13.50;99.90;;;;;;4958524;28;95078;-72
2022/09/26 08:07:56;;;;;;;5.60;3.70;;;13.60;99.90;;;;;;4974564;28;93415;-73
2022/09/26 08:10:42;;;;;;;4.60;3.70;;;13.70;99.90;;;;;;4973463;28;92897;-73
2022/09/26 08:13:32;;;;;;;4.40;4.00;;;13.80;99.90;;;;;;4968952;28;92518;-73
2022/09/26 08:16:12;;;;;;;4.32;3.63;;;13.80;99.90;;;;;;4959965;28;95429;-72
2022/09/26 08:18:42;;;;;;;4.82;3.50;;;13.90;99.90;;;;;;4974091;28;92494;-73
2022/09/26 08:21:09;;;;;;;5.53;3.80;;;14.00;99.90;;;;;;4958072;28;92562;-73
2022/09/26 08:23:36;;;;;;;7.50;4.00;;;14.10;99.90;;;;;;4956888;28;97938;-73
2022/09/26 08:26:29;;;;;;;4.18;3.78;;;14.20;99.90;;;;;;4973913;28;96263;-73
2022/09/26 08:29:22;;;;;;;4.43;3.72;;;14.20;99.90;;;;;;4953233;28;92453;-73
2022/09/26 08:31:53;;;;;;;3.60;3.30;;;14.20;99.90;;;;;;4974097;28;92572;-72
2022/09/26 08:34:20;;;;;;;5.75;4.28;;;14.30;99.90;;;;;;4975550;28;93029;-73
2022/09/26 08:37:17;;;;;;;7.85;3.88;;;14.40;99.90;;;;;;4965605;28;92802;-72
2022/09/26 08:40:03;;;;;;;4.78;3.55;;;14.40;99.90;;;;;;4975915;28;92382;-72
2022/09/26 08:43:18;;;;;;;4.35;3.38;;;14.50;99.90;;;;;;4967111;28;91815;-73
2022/09/26 08:46:31;;;;;;;5.25;4.07;;;14.60;99.90;;;;;;4956906;28;93046;-73
2022/09/26 08:49:34;;;;;;;4.65;3.75;;;14.50;99.90;;;;;;4978988;28;93077;-73
2022/09/26 08:52:12;;;;;;;5.95;5.03;;;14.50;99.90;;;;;;4977977;28;94739;-73
2022/09/26 08:54:42;;;;;;;5.60;4.03;;;14.50;99.90;;;;;;4977567;28;92561;-73
2022/09/26 08:57:15;;;;;;;6.32;3.78;;;14.40;99.90;;;;;;4977095;28;96269;-73
2022/09/26 08:59:45;;;;;;;6.50;4.57;;;14.40;99.90;;;;;;4977295;28;95292;-73
2022/09/26 09:02:29;;;;;;;4.28;3.45;;;14.30;99.90;;;;;;4977471;28;92560;-73
2022/09/26 09:05:05;;;;;;;9.93;4.22;;;14.20;99.90;;;;;;4977365;28;92504;-73
2022/09/26 09:07:37;;;;;;;6.38;3.67;;;14.10;99.90;;;;;;4977140;28;95403;-73
2022/09/26 09:10:09;;;;;;;4.35;3.38;;;14.10;99.90;;;;;;4977478;28;95364;-73
2022/09/26 09:12:47;;;;;;;7.13;3.75;;;14.10;99.90;;;;;;4962254;28;93155;-73
2022/09/26 09:15:54;;;;;;;4.53;3.40;;;14.20;99.90;;;;;;4977249;28;92500;-73
2022/09/26 09:18:40;;;;;;;4.88;3.85;;;14.20;99.90;;;;;;4975253;28;98439;-73
2022/09/26 09:21:25;;;;;;;3.92;3.45;;;14.30;99.90;;;;;;4976788;28;97669;-73
2022/09/26 09:24:36;;;;;;;8.25;4.00;;;14.20;99.90;;;;;;4963273;28;92480;-72
2022/09/26 09:27:12;;;;;;;4.82;2.83;;;14.30;99.90;;;;;;4976749;28;92481;-73
2022/09/26 09:30:39;;;;;;;4.68;4.20;;;14.20;99.90;;;;;;4976468;28;95471;-73
2022/09/26 09:33:51;;;;;;;3.90;2.97;;;14.30;99.90;;;;;;4976756;28;95244;-73
2022/09/26 09:36:49;;;;;;;4.40;3.20;;;14.40;99.90;;;;;;4960297;28;92536;-73
2022/09/26 09:39:33;;;;;;;3.47;3.05;;;14.40;99.90;;;;;;4978120;28;91706;-73
2022/09/26 09:42:15;;;;;;;7.10;3.78;;;14.50;99.90;;;;;;4976386;28;95674;-73
2022/09/26 09:45:01;;;;;;;4.80;3.63;;;14.60;99.90;;;;;;4960525;28;95459;-73
2022/09/26 09:47:36;;;;;;;6.13;3.38;;;14.60;99.90;;;;;;4959573;28;94905;-73
2022/09/26 09:50:33;;;;;;;3.80;3.50;;;14.70;99.90;;;;;;4976525;28;92486;-73
2022/09/26 09:53:19;;;;;;;6.78;3.80;;;14.80;99.90;;;;;;4975894;28;95710;-73
2022/09/26 09:56:14;;;;;;;3.85;3.30;;;14.80;99.90;;;;;;4976551;28;95329;-72
2022/09/26 09:59:32;;;;;;;3.78;3.47;;;14.90;99.90;;;;;;4976594;28;92474;-72
2022/09/26 10:02:38;;;;;;;5.60;3.25;;;14.80;99.90;;;;;;4919562;28;93693;-73
2022/09/26 10:05:25;;;;;;;7.93;4.20;;;14.70;99.90;;;;;;4970095;28;94123;-73
2022/09/26 10:07:57;;;;;;;7.40;4.03;;;14.60;99.90;;;;;;4976558;28;94524;-73
2022/09/26 10:11:18;;;;;;;3.17;2.75;;;14.60;99.90;;;;;;4957788;28;93183;-73
2022/09/26 10:14:14;;;;;;;4.28;3.10;;;14.60;99.90;;;;;;4976460;28;92572;-73
2022/09/26 10:17:08;;;;;;;5.82;4.30;;;14.60;99.90;;;;;;4976034;28;94876;-73
2022/09/26 10:20:00;;;;;;;8.65;3.85;;;14.60;99.90;;;;;;4975668;28;97415;-73
2022/09/26 10:22:41;;;;;;;5.63;3.80;;;14.60;99.90;;;;;;4976200;28;92861;-73
2022/09/26 10:25:16;;;;;;;6.32;3.85;;;14.60;99.90;;;;;;4959875;28;92775;-73
2022/09/26 10:27:52;;;;;;;5.63;3.85;;;14.60;99.90;;;;;;4975886;28;95458;-73
2022/09/26 10:30:28;;;;;;;5.55;3.90;;;14.70;99.90;;;;;;4959700;28;94897;-73
2022/09/26 10:33:03;;;;;;;7.20;4.50;;;14.60;99.90;;;;;;4975764;28;92411;-73
2022/09/26 10:35:57;;;;;;;6.13;3.40;;;14.60;99.90;;;;;;4976134;28;91796;-73
2022/09/26 10:38:28;;;;;;;8.70;4.22;;;14.50;99.90;;;;;;4975604;28;95620;-73
2022/09/26 10:41:23;;;;;;;6.15;4.55;;;14.50;99.90;;;;;;4975430;28;95264;-73
2022/09/26 10:43:54;;;;;;;7.00;4.05;;;14.50;99.90;;;;;;4974764;28;94828;-73
2022/09/26 10:46:45;;;;;;;6.60;3.50;;;14.60;99.90;;;;;;4976951;28;92416;-73
2022/09/26 10:50:15;;;;;;;10.75;3.90;;;14.60;99.90;;;;;;4950340;28;95146;-73
2022/09/26 10:52:56;;;;;;;;;;;14.70;99.90;;;;;;4977603;28;92620;-72
2022/09/26 10:55:42;;;;;;;4.97;3.60;;;14.60;99.90;;;;;;4960790;28;92569;-73
2022/09/26 10:58:20;;;;;;;6.35;4.38;;;14.50;99.90;;;;;;4959368;28;92551;-73
2022/09/26 11:00:51;;;;;;;5.22;4.30;;;14.60;99.90;;;;;;4975328;28;95392;-73
2022/09/26 11:03:33;;;;;;;7.95;5.13;;;14.50;99.90;;;;;;4975621;28;95360;-72
2022/09/26 11:06:25;;;;;;;5.65;4.05;;;14.60;99.90;;;;;;4965732;28;92531;-72
2022/09/26 11:09:02;;;;;;;5.30;4.25;;;14.50;99.90;;;;;;4975161;28;92510;-73
2022/09/26 11:11:38;;;;;;;4.82;3.92;;;14.50;99.90;;;;;;4972746;28;95499;-73
2022/09/26 11:14:07;;;;;;;6.35;3.95;;;14.60;99.90;;;;;;4975017;28;97385;-73
2022/09/26 11:16:42;;;;;;;6.82;3.95;;;14.60;99.90;;;;;;4975272;28;92552;-73
2022/09/26 11:19:21;;;;;;;4.43;3.42;;;14.50;99.90;;;;;;4974709;28;93095;-73
2022/09/26 11:22:05;;;;;;;4.80;3.65;;;14.60;99.90;;;;;;4974974;28;95773;-73
2022/09/26 11:25:03;;;;;;;6.55;3.95;;;14.60;99.90;;;;;;4974987;28;95537;-73
2022/09/26 11:28:09;;;;;;;5.60;4.10;;;14.60;99.90;;;;;;4974917;28;92415;-73
2022/09/26 11:31:07;;;;;;;5.32;3.58;;;14.50;99.90;;;;;;4956896;28;91667;-73
2022/09/26 11:33:42;;;;;;;5.30;3.90;;;14.50;99.90;;;;;;4974893;28;95727;-73
2022/09/26 11:37:02;;;;;;;6.57;4.53;;;14.50;99.90;;;;;;4970061;28;92853;-73
2022/09/26 11:39:39;;;;;;;4.03;3.63;;;14.40;99.90;;;;;;4957515;28;95084;-73
2022/09/26 11:42:18;;;;;;;4.43;3.63;;;14.50;99.90;;;;;;4974794;28;93016;-73
2022/09/26 11:44:55;;;;;;;4.95;4.18;;;14.40;99.90;;;;;;4963400;28;95921;-73
2022/09/26 11:47:58;;;;;;;5.05;4.55;;;14.40;99.90;;;;;;4974597;28;92570;-73
2022/09/26 11:50:48;;;;;;;3.97;3.50;;;14.40;99.90;;;;;;4960122;28;92503;-73
2022/09/26 11:53:38;;;;;;;6.00;3.80;;;14.40;99.90;;;;;;4974687;28;92510;-73
2022/09/26 11:56:14;;;;;;;5.35;4.72;;;14.40;99.90;;;;;;4976160;28;93498;-73
2022/09/26 11:58:59;;;;;;;5.15;4.65;;;14.50;99.90;;;;;;4976387;28;93535;-73
2022/09/26 12:01:45;;;;;;;6.75;4.97;;;14.60;99.90;;;;;;4976151;28;92458;-73
2022/09/26 12:04:46;;;;;;;5.95;4.00;;;14.50;99.90;;;;;;4975112;28;92467;-73
2022/09/26 12:07:19;;;;;;;15.15;11.50;;;14.50;99.90;;;;;;4973155;28;98184;-73
2022/09/26 12:10:05;;;;;;;4.80;4.28;;;14.50;99.90;;;;;;4975175;28;95388;-73
2022/09/26 12:12:48;;;;;;;5.45;4.80;;;14.50;99.90;;;;;;4974205;28;92643;-73
2022/09/26 12:15:42;;;;;;;4.43;4.03;;;14.50;99.90;;;;;;4975476;28;93137;-73
2022/09/26 12:18:14;;;;;;;;;;;14.50;99.90;;;;;;4975808;28;93066;-72
2022/09/26 12:21:02;;;;;;;5.32;4.55;;;14.40;99.90;;;;;;4976858;28;92625;-73
2022/09/26 12:23:57;;;;;;;5.32;4.90;;;14.50;99.90;;;;;;4974663;28;93068;-73
2022/09/26 12:26:43;;;;;;;4.78;4.38;;;14.60;99.90;;;;;;4974270;28;91758;-72
2022/09/26 12:29:38;;;;;;;4.60;4.20;;;14.60;99.90;;;;;;4975787;28;93292;-73
2022/09/26 12:32:24;;;;;;;4.57;4.18;;;14.60;99.90;;;;;;4957819;28;95559;-72
2022/09/26 12:35:10;;;;;;;7.65;5.82;;;14.50;99.90;;;;;;4974749;28;94839;-73
2022/09/26 12:38:15;;;;;;;7.82;6.78;;;14.50;99.90;;;;;;4974387;28;92427;-73
2022/09/26 12:40:57;;;;;;;9.90;7.57;;;14.60;99.90;;;;;;4975290;28;93359;-73
2022/09/26 12:44:12;;;;;;;5.38;4.32;;;14.60;99.90;;;;;;4973714;28;93916;-73
2022/09/26 12:46:52;;;;;;;3.58;3.38;;;14.60;99.90;;;;;;4974396;28;92562;-73
2022/09/26 12:49:31;;;;;;;6.03;4.85;;;14.50;99.90;;;;;;4973682;28;92487;-73
2022/09/26 12:52:23;;;;;;;3.58;3.28;;;14.60;99.90;;;;;;4975488;28;93306;-73
2022/09/26 12:55:04;;;;;;;3.97;3.55;;;14.60;99.90;;;;;;4974321;28;94565;-73
2022/09/26 12:57:57;;;;;;;4.38;4.07;;;14.60;99.90;;;;;;4975389;28;92451;-73
2022/09/26 13:00:24;;;;;;;3.00;2.70;;;14.60;99.90;;;;;;4975432;28;92554;-73
2022/09/26 13:03:31;;;;;;;8.73;7.93;;;14.60;99.90;;;;;;4972640;28;95564;-73
2022/09/26 13:06:24;;;;;;;3.92;3.60;;;14.70;99.90;;;;;;4975067;28;95391;-73
2022/09/26 13:09:13;;;;;;;11.45;10.38;;;14.70;99.90;;;;;;4975491;28;92353;-73
2022/09/26 13:11:43;;;;;;;3.10;2.80;;;14.70;99.90;;;;;;4974310;28;92428;-73
2022/09/26 13:14:34;;;;;;;3.20;2.90;;;14.70;99.90;;;;;;4974925;28;93383;-73
2022/09/26 13:17:18;;;;;;;3.75;2.92;;;14.80;99.90;;;;;;4975247;28;93060;-74
2022/09/26 13:19:51;;;;;;;3.47;3.17;;;14.80;99.90;;;;;;4974992;28;92429;-73
2022/09/26 13:22:33;;;;;;;4.17;3.30;;;14.80;99.90;;;;;;4974036;28;91717;-73
2022/09/26 13:25:06;;;;;;;3.50;3.20;;;14.90;99.90;;;;;;4973538;28;95854;-73
2022/09/26 13:27:45;;;;;;;2.75;2.40;;;14.90;99.90;;;;;;4977188;28;93038;-73
2022/09/26 13:30:24;;;;;;;3.72;3.42;;;14.90;99.90;;;;;;4959616;28;94867;-73
2022/09/26 13:33:17;;;;;;;3.50;3.30;;;14.90;99.90;;;;;;4978642;28;92555;-73
2022/09/26 13:35:46;;;;;;;2.63;2.42;;;14.90;99.90;;;;;;4973218;28;93070;-73
2022/09/26 13:38:38;;;;;;;4.10;3.70;;;14.80;99.90;;;;;;4976503;28;94620;-73
2022/09/26 13:41:19;;;;;;;2.70;2.50;;;14.90;99.90;;;;;;4976934;28;92524;-73
2022/09/26 13:44:13;;;;;;;2.83;2.30;;;14.90;99.90;;;;;;4978072;28;92482;-73
2022/09/26 13:47:18;;;;;;;3.08;2.60;;;14.90;99.90;;;;;;4976223;28;96241;-73
2022/09/26 13:50:04;;;;;;;2.88;2.15;;;15.00;99.90;;;;;;4977954;28;92992;-73
2022/09/26 13:52:51;;;;;;;2.50;2.40;;;15.00;99.90;;;;;;4976550;28;92484;-73
2022/09/26 13:55:20;;;;;;;2.95;2.75;;;15.00;99.90;;;;;;4978204;28;92424;-73
2022/09/26 13:58:16;;;;;;;2.70;2.50;;;15.00;99.90;;;;;;4974967;28;98387;-73